createdAt,value
2018-12-31T00:02:34.574Z,20.23
2018-12-31T00:07:40.647Z,20.37
2018-12-31T00:12:46.829Z,20.43
2018-12-31T00:17:53.089Z,20.13
2018-12-31T00:22:59.631Z,20.27
2018-12-31T00:28:06.152Z,20.27
2018-12-31T00:33:12.322Z,19.77
2018-12-31T00:38:18.355Z,20.60
2018-12-31T00:43:25.187Z,20.07
2018-12-31T00:48:31.615Z,20.30
2018-12-31T00:53:37.937Z,19.37
2018-12-31T00:58:44.211Z,20.57
2018-12-31T01:03:50.614Z,19.40
2018-12-31T01:08:56.868Z,19.50
2018-12-31T01:14:02.917Z,20.40
2018-12-31T01:19:09.167Z,18.87
2018-12-31T01:24:15.539Z,18.40
2018-12-31T01:29:21.674Z,18.27
2018-12-31T01:34:28.165Z,18.63
2018-12-31T01:39:34.206Z,19.00
2018-12-31T01:44:40.702Z,17.63
2018-12-31T01:49:47.161Z,17.43
2018-12-31T01:54:53.392Z,17.80
2018-12-31T02:00:00.035Z,16.50
2018-12-31T02:05:06.583Z,17.10
2018-12-31T02:10:13.283Z,16.93
2018-12-31T02:15:19.642Z,16.87
2018-12-31T02:20:26.260Z,16.83
2018-12-31T02:25:32.521Z,17.07
2018-12-31T02:30:39.129Z,16.93
2018-12-31T02:35:45.235Z,17.73
2018-12-31T02:40:53.095Z,17.77
2018-12-31T02:45:59.199Z,17.67
2018-12-31T02:51:05.475Z,16.27
2018-12-31T02:56:11.690Z,17.67
2018-12-31T03:01:17.811Z,17.10
2018-12-31T03:06:23.983Z,17.00
2018-12-31T03:11:30.184Z,16.23
2018-12-31T03:16:36.396Z,15.17
2018-12-31T03:21:42.638Z,14.17
2018-12-31T03:26:48.883Z,14.67
2018-12-31T03:31:55.417Z,12.63
2018-12-31T03:37:01.462Z,13.27
2018-12-31T03:42:07.934Z,12.20
2018-12-31T03:47:14.110Z,11.53
2018-12-31T03:52:20.363Z,11.47
2018-12-31T03:57:27.011Z,10.03
2018-12-31T04:02:33.463Z,10.67
2018-12-31T04:07:39.659Z,9.17
2018-12-31T04:12:45.898Z,9.03
2018-12-31T04:17:52.197Z,8.63
2018-12-31T04:22:58.398Z,8.70
2018-12-31T04:28:04.786Z,8.70
2018-12-31T04:33:10.912Z,7.43
2018-12-31T04:38:17.119Z,7.90
2018-12-31T04:43:23.614Z,7.13
2018-12-31T04:48:29.889Z,7.70
2018-12-31T04:53:36.081Z,7.83
2018-12-31T04:58:42.877Z,7.17
2018-12-31T05:03:48.989Z,7.43
2018-12-31T05:08:55.110Z,6.80
2018-12-31T05:14:01.169Z,7.13
2018-12-31T05:19:07.378Z,6.83
2018-12-31T05:24:13.446Z,6.67
2018-12-31T05:29:19.370Z,7.70
2018-12-31T05:34:25.298Z,6.40
2018-12-31T05:39:31.440Z,7.10
2018-12-31T05:44:37.662Z,8.37
2018-12-31T05:49:43.899Z,7.97
2018-12-31T05:54:49.990Z,8.83
2018-12-31T05:59:56.230Z,10.60
2018-12-31T06:05:02.804Z,14.30
2018-12-31T06:10:09.003Z,17.80
2018-12-31T06:15:15.254Z,18.30
2018-12-31T06:20:21.387Z,17.83
2018-12-31T06:25:27.986Z,9.93
2018-12-31T06:30:34.142Z,10.63
2018-12-31T06:35:40.461Z,10.13
2018-12-31T06:40:46.652Z,10.40
2018-12-31T06:45:52.727Z,10.20
2018-12-31T06:50:58.877Z,9.77
2018-12-31T06:56:04.982Z,10.80
2018-12-31T07:01:11.539Z,9.73
2018-12-31T07:06:17.587Z,9.97
2018-12-31T07:11:23.601Z,9.03
2018-12-31T07:16:29.834Z,8.53
2018-12-31T07:21:35.888Z,9.37
2018-12-31T07:26:42.330Z,8.60
2018-12-31T07:31:49.382Z,9.50
2018-12-31T07:36:55.573Z,8.67
2018-12-31T07:42:01.713Z,10.17
2018-12-31T07:47:08.276Z,9.50
2018-12-31T07:52:14.548Z,9.43
2018-12-31T07:57:21.767Z,11.23
2018-12-31T08:02:27.802Z,13.10
2018-12-31T08:07:34.494Z,9.43
2018-12-31T08:12:40.736Z,9.60
2018-12-31T08:17:46.941Z,9.57
2018-12-31T08:22:52.874Z,9.27
2018-12-31T08:27:58.999Z,16.87
2018-12-31T08:33:06.179Z,9.87
2018-12-31T08:38:12.814Z,8.80
2018-12-31T08:43:18.915Z,8.27
2018-12-31T08:48:25.045Z,9.23
2018-12-31T08:53:31.118Z,8.53
2018-12-31T08:58:37.294Z,8.80
2018-12-31T09:03:43.714Z,9.03
2018-12-31T09:08:49.866Z,8.40
2018-12-31T09:13:56.162Z,10.50
2018-12-31T09:19:02.255Z,9.03
2018-12-31T09:24:08.709Z,8.67
2018-12-31T09:29:14.968Z,8.30
2018-12-31T09:34:21.595Z,8.60
2018-12-31T09:39:27.962Z,8.50
2018-12-31T09:44:34.054Z,8.20
2018-12-31T09:49:40.197Z,9.63
2018-12-31T09:54:46.189Z,9.77
2018-12-31T09:59:52.491Z,9.67
2018-12-31T10:04:58.584Z,9.23
2018-12-31T10:10:04.735Z,9.13
2018-12-31T10:15:13.850Z,9.70
2018-12-31T10:20:19.918Z,10.40
2018-12-31T10:25:26.034Z,11.10
2018-12-31T10:30:32.430Z,12.33
2018-12-31T10:35:38.530Z,12.70
2018-12-31T10:40:44.738Z,11.70
2018-12-31T10:45:51.042Z,11.83
2018-12-31T10:50:57.322Z,11.20
2018-12-31T10:56:03.396Z,12.23
2018-12-31T11:01:09.569Z,12.30
2018-12-31T11:06:15.980Z,12.60
2018-12-31T11:11:22.079Z,12.73
2018-12-31T11:16:28.253Z,13.63
2018-12-31T11:21:34.259Z,12.93
2018-12-31T11:26:40.370Z,14.13
2018-12-31T11:31:46.469Z,15.03
2018-12-31T11:36:53.868Z,14.63
2018-12-31T11:42:01.714Z,13.67
2018-12-31T11:47:07.806Z,16.30
2018-12-31T11:52:14.806Z,15.50
2018-12-31T11:57:20.897Z,14.43
2018-12-31T12:02:28.114Z,14.63
2018-12-31T12:07:34.169Z,14.23
2018-12-31T12:12:40.234Z,16.50
2018-12-31T12:17:46.294Z,15.93
2018-12-31T12:22:52.866Z,16.30
2018-12-31T12:27:58.872Z,15.70
2018-12-31T12:33:05.471Z,28.03
2018-12-31T12:38:11.711Z,16.33
2018-12-31T12:43:17.882Z,15.83
2018-12-31T12:48:23.901Z,16.40
2018-12-31T12:53:30.104Z,17.63
2018-12-31T12:58:36.434Z,16.53
2018-12-31T13:03:42.852Z,16.07
2018-12-31T13:08:48.979Z,15.93
2018-12-31T13:13:55.294Z,15.73
2018-12-31T13:19:01.399Z,15.73
2018-12-31T13:24:07.553Z,15.23
2018-12-31T13:29:13.590Z,13.97
2018-12-31T13:34:19.746Z,13.83
2018-12-31T13:39:25.954Z,15.00
2018-12-31T13:44:33.046Z,15.73
2018-12-31T13:49:39.166Z,16.57
2018-12-31T13:54:45.359Z,15.57
2018-12-31T13:59:51.922Z,14.97
2018-12-31T14:04:58.072Z,16.73
2018-12-31T14:10:05.903Z,16.50
2018-12-31T14:15:12.193Z,16.77
2018-12-31T14:20:19.292Z,16.27
2018-12-31T14:25:25.686Z,16.77
2018-12-31T14:30:31.994Z,17.13
2018-12-31T14:35:45.538Z,18.40
2018-12-31T14:40:45.809Z,18.27
2018-12-31T14:45:52.019Z,16.93
2018-12-31T14:50:58.657Z,15.13
2018-12-31T14:56:04.924Z,17.00
2018-12-31T15:01:12.063Z,16.47
2018-12-31T15:06:18.135Z,15.70
2018-12-31T15:11:24.222Z,14.83
2018-12-31T15:16:30.282Z,14.97
2018-12-31T15:21:36.486Z,13.73
2018-12-31T15:26:42.733Z,14.47
2018-12-31T15:31:48.845Z,12.30
2018-12-31T15:36:55.537Z,12.87
2018-12-31T15:42:01.686Z,12.77
2018-12-31T15:47:08.271Z,12.63
2018-12-31T15:52:14.466Z,15.67
2018-12-31T15:57:20.587Z,14.60
2018-12-31T16:02:27.001Z,15.33
2018-12-31T16:07:33.179Z,20.03
2018-12-31T16:12:39.849Z,16.10
2018-12-31T16:17:46.264Z,14.43
2018-12-31T16:22:52.622Z,15.87
2018-12-31T16:27:58.791Z,17.70
2018-12-31T16:33:05.379Z,19.50
2018-12-31T16:38:11.554Z,22.80
2018-12-31T16:43:18.043Z,29.53
2018-12-31T16:48:24.297Z,29.43
2018-12-31T16:53:30.609Z,31.13
2018-12-31T16:58:36.742Z,29.93
2018-12-31T17:03:43.177Z,35.03
2018-12-31T17:08:49.391Z,21.63
2018-12-31T17:13:55.670Z,17.73
2018-12-31T17:19:01.990Z,16.83
2018-12-31T17:24:08.537Z,18.83
2018-12-31T17:29:14.770Z,20.77
2018-12-31T17:34:21.281Z,20.23
2018-12-31T17:39:27.565Z,21.77
2018-12-31T17:44:34.086Z,17.70
2018-12-31T17:49:40.612Z,21.43
2018-12-31T17:54:47.091Z,18.90
2018-12-31T17:59:53.147Z,12.10
2018-12-31T18:04:59.773Z,16.50
2018-12-31T18:10:07.358Z,17.27
2018-12-31T18:15:16.638Z,19.40
2018-12-31T18:20:23.205Z,18.77
2018-12-31T18:25:29.436Z,21.47
2018-12-31T18:30:35.700Z,27.47
2018-12-31T18:35:41.999Z,46.37
2018-12-31T18:40:48.742Z,37.80
2018-12-31T18:45:55.109Z,25.70
2018-12-31T18:51:01.213Z,67.23
2018-12-31T18:56:07.519Z,26.53
2018-12-31T19:01:13.675Z,18.53
2018-12-31T19:06:20.143Z,17.77
2018-12-31T19:11:26.339Z,22.50
2018-12-31T19:16:32.739Z,21.30
2018-12-31T19:21:38.910Z,17.80
2018-12-31T19:26:44.916Z,17.70
2018-12-31T19:31:51.434Z,17.63
2018-12-31T19:36:57.613Z,24.17
2018-12-31T19:42:04.037Z,20.83
2018-12-31T19:47:10.249Z,16.63
2018-12-31T19:52:16.943Z,18.30
2018-12-31T19:57:23.162Z,17.97
2018-12-31T20:02:29.755Z,19.97
2018-12-31T20:07:36.569Z,21.63
2018-12-31T20:12:43.162Z,31.33
2018-12-31T20:17:49.577Z,19.90
2018-12-31T20:22:56.121Z,20.00
2018-12-31T20:28:03.789Z,20.27
2018-12-31T20:33:09.910Z,23.20
2018-12-31T20:38:18.427Z,20.60
2018-12-31T20:43:25.013Z,22.50
2018-12-31T20:48:31.171Z,29.80
2018-12-31T20:53:37.788Z,56.27
2018-12-31T20:58:43.993Z,32.33
2018-12-31T21:03:50.196Z,30.10
2018-12-31T21:08:56.322Z,32.63
2018-12-31T21:14:02.499Z,31.83
2018-12-31T21:19:08.762Z,96.70
2018-12-31T21:24:15.142Z,77.83
2018-12-31T21:29:21.207Z,28.67
2018-12-31T21:34:27.710Z,169.87
2018-12-31T21:39:33.834Z,55.67
2018-12-31T21:44:40.042Z,23.37
2018-12-31T21:49:46.552Z,19.40
2018-12-31T21:54:53.100Z,17.70
2018-12-31T21:59:59.839Z,23.00
2018-12-31T22:05:06.159Z,20.63
2018-12-31T22:10:12.912Z,20.30
2018-12-31T22:15:19.154Z,22.63
2018-12-31T22:20:25.770Z,23.23
2018-12-31T22:25:31.961Z,24.23
2018-12-31T22:30:38.322Z,25.03
2018-12-31T22:35:44.443Z,34.70
2018-12-31T22:40:51.021Z,30.70
2018-12-31T22:45:57.187Z,24.03
2018-12-31T22:51:03.568Z,22.43
2018-12-31T22:56:10.056Z,22.17
2018-12-31T23:01:16.491Z,27.03
2018-12-31T23:06:25.368Z,79.93
2018-12-31T23:11:32.011Z,68.87
2018-12-31T23:16:38.464Z,150.20
2018-12-31T23:21:45.076Z,226.07
2018-12-31T23:26:51.458Z,195.63
2018-12-31T23:31:57.909Z,149.50
2018-12-31T23:37:04.206Z,178.47
2018-12-31T23:42:10.566Z,205.73
2018-12-31T23:47:17.069Z,208.10
2018-12-31T23:52:23.307Z,181.80
2018-12-31T23:57:29.378Z,137.33
